sensor_id;sensor_type;location;lat;lon;timestamp;temperature;humidity
7936;DHT22;4013;49.744;8.118;2023-08-06T01:24:10;16.00;99.90
7936;DHT22;4013;49.744;8.118;2023-08-06T01:26:45;16.10;99.90
7936;DHT22;4013;49.744;8.118;2023-08-06T01:29:19;16.20;99.90
7936;DHT22;4013;49.744;8.118;2023-08-06T01:31:51;16.20;99.90
7936;DHT22;4013;49.744;8.118;2023-08-06T01:34:22;16.30;99.90
7936;DHT22;4013;49.744;8.118;2023-08-06T01:36:49;16.20;99.90
7936;DHT22;4013;49.744;8.118;2023-08-06T01:39:18;16.30;99.90
7936;DHT22;4013;49.744;8.118;2023-08-06T01:41:46;16.30;99.90
7936;DHT22;4013;49.744;8.118;2023-08-06T01:44:13;16.30;99.90
7936;DHT22;4013;49.744;8.118;2023-08-06T01:46:41;16.40;99.90
7936;DHT22;4013;49.744;8.118;2023-08-06T01:49:07;16.40;99.90
7936;DHT22;4013;49.744;8.118;2023-08-06T04:47:39;15.30;99.90
7936;DHT22;4013;49.744;8.118;2023-08-06T04:50:06;15.30;99.90
7936;DHT22;4013;49.744;8.118;2023-08-06T04:52:33;15.30;99.90
7936;DHT22;4013;49.744;8.118;2023-08-06T04:55:00;15.30;99.90
7936;DHT22;4013;49.744;8.118;2023-08-06T04:57:27;15.30;99.90
7936;DHT22;4013;49.744;8.118;2023-08-06T04:59:54;15.20;99.90
7936;DHT22;4013;49.744;8.118;2023-08-06T05:02:21;15.30;99.90
7936;DHT22;4013;49.744;8.118;2023-08-06T05:04:49;15.30;99.90
7936;DHT22;4013;49.744;8.118;2023-08-06T05:07:16;15.40;99.90
7936;DHT22;4013;49.744;8.118;2023-08-06T05:09:43;15.40;99.90
7936;DHT22;4013;49.744;8.118;2023-08-06T05:12:10;15.30;99.90
7936;DHT22;4013;49.744;8.118;2023-08-06T05:14:37;15.30;99.90
7936;DHT22;4013;49.744;8.118;2023-08-06T05:17:04;15.30;99.90
7936;DHT22;4013;49.744;8.118;2023-08-06T05:19:31;15.30;99.90
7936;DHT22;4013;49.744;8.118;2023-08-06T05:22:00;15.20;99.90
7936;DHT22;4013;49.744;8.118;2023-08-06T05:24:27;15.20;99.90
7936;DHT22;4013;49.744;8.118;2023-08-06T05:26:54;15.30;99.90
7936;DHT22;4013;49.744;8.118;2023-08-06T05:29:21;15.30;99.90
7936;DHT22;4013;49.744;8.118;2023-08-06T05:31:48;15.30;99.90
7936;DHT22;4013;49.744;8.118;2023-08-06T05:34:15;15.30;99.90
7936;DHT22;4013;49.744;8.118;2023-08-06T05:36:42;15.30;99.90
7936;DHT22;4013;49.744;8.118;2023-08-06T05:39:10;15.30;99.90
7936;DHT22;4013;49.744;8.118;2023-08-06T05:41:37;15.30;99.90
7936;DHT22;4013;49.744;8.118;2023-08-06T05:44:04;15.30;99.90
7936;DHT22;4013;49.744;8.118;2023-08-06T05:46:31;15.30;99.90
7936;DHT22;4013;49.744;8.118;2023-08-06T05:48:58;15.30;99.90
7936;DHT22;4013;49.744;8.118;2023-08-06T05:51:26;15.30;99.90
7936;DHT22;4013;49.744;8.118;2023-08-06T05:53:53;15.30;99.90
7936;DHT22;4013;49.744;8.118;2023-08-06T05:56:21;15.40;99.90
7936;DHT22;4013;49.744;8.118;2023-08-06T05:58:48;15.40;99.90
7936;DHT22;4013;49.744;8.118;2023-08-06T06:01:18;15.40;99.90
7936;DHT22;4013;49.744;8.118;2023-08-06T06:03:45;15.40;99.90
7936;DHT22;4013;49.744;8.118;2023-08-06T06:06:12;15.40;99.90
7936;DHT22;4013;49.744;8.118;2023-08-06T06:08:39;15.40;99.90
7936;DHT22;4013;49.744;8.118;2023-08-06T06:11:06;15.40;99.90
7936;DHT22;4013;49.744;8.118;2023-08-06T06:13:34;15.40;99.90
7936;DHT22;4013;49.744;8.118;2023-08-06T06:16:01;15.40;99.90
7936;DHT22;4013;49.744;8.118;2023-08-06T06:18:28;15.30;99.90
7936;DHT22;4013;49.744;8.118;2023-08-06T06:20:55;15.40;99.90
7936;DHT22;4013;49.744;8.118;2023-08-06T06:23:22;15.30;99.90
7936;DHT22;4013;49.744;8.118;2023-08-06T06:25:50;15.30;99.90
7936;DHT22;4013;49.744;8.118;2023-08-06T06:28:17;15.40;99.90
7936;DHT22;4013;49.744;8.118;2023-08-06T06:30:45;15.40;99.90
7936;DHT22;4013;49.744;8.118;2023-08-06T06:33:12;15.30;99.90
7936;DHT22;4013;49.744;8.118;2023-08-06T06:35:39;15.30;99.90
7936;DHT22;4013;49.744;8.118;2023-08-06T06:38:06;15.40;99.90
7936;DHT22;4013;49.744;8.118;2023-08-06T06:40:33;15.40;99.90
7936;DHT22;4013;49.744;8.118;2023-08-06T06:43:00;15.30;99.90
7936;DHT22;4013;49.744;8.118;2023-08-06T06:45:27;15.40;99.90
7936;DHT22;4013;49.744;8.118;2023-08-06T06:47:55;15.40;99.90
7936;DHT22;4013;49.744;8.118;2023-08-06T06:50:22;15.50;99.90
7936;DHT22;4013;49.744;8.118;2023-08-06T06:52:49;15.50;99.90
7936;DHT22;4013;49.744;8.118;2023-08-06T06:55:16;15.60;99.90
7936;DHT22;4013;49.744;8.118;2023-08-06T06:57:43;15.60;99.90
7936;DHT22;4013;49.744;8.118;2023-08-06T07:00:11;15.60;99.90
7936;DHT22;4013;49.744;8.118;2023-08-06T07:02:38;15.50;99.90
7936;DHT22;4013;49.744;8.118;2023-08-06T07:05:06;15.60;99.90
7936;DHT22;4013;49.744;8.118;2023-08-06T07:07:35;15.70;99.90
7936;DHT22;4013;49.744;8.118;2023-08-06T07:10:03;15.70;99.90
7936;DHT22;4013;49.744;8.118;2023-08-06T07:12:31;15.80;99.90
7936;DHT22;4013;49.744;8.118;2023-08-06T07:14:58;15.80;99.90
7936;DHT22;4013;49.744;8.118;2023-08-06T07:17:25;15.80;99.90
7936;DHT22;4013;49.744;8.118;2023-08-06T07:19:52;15.80;99.90
7936;DHT22;4013;49.744;8.118;2023-08-06T07:22:20;15.90;99.90
7936;DHT22;4013;49.744;8.118;2023-08-06T07:24:47;16.00;99.90
7936;DHT22;4013;49.744;8.118;2023-08-06T07:27:14;16.10;99.90
7936;DHT22;4013;49.744;8.118;2023-08-06T07:29:41;16.20;99.90
7936;DHT22;4013;49.744;8.118;2023-08-06T07:32:08;16.30;99.90
7936;DHT22;4013;49.744;8.118;2023-08-06T07:34:34;16.50;99.90
7936;DHT22;4013;49.744;8.118;2023-08-06T07:37:02;16.60;99.90
7936;DHT22;4013;49.744;8.118;2023-08-06T07:39:30;16.90;99.90
7936;DHT22;4013;49.744;8.118;2023-08-06T07:41:57;17.00;99.90
7936;DHT22;4013;49.744;8.118;2023-08-06T07:44:24;17.20;99.90
7936;DHT22;4013;49.744;8.118;2023-08-06T07:46:51;17.20;99.90
7936;DHT22;4013;49.744;8.118;2023-08-06T07:49:18;17.20;99.90
7936;DHT22;4013;49.744;8.118;2023-08-06T07:51:45;17.20;99.90
7936;DHT22;4013;49.744;8.118;2023-08-06T07:54:12;17.20;99.90
7936;DHT22;4013;49.744;8.118;2023-08-06T07:56:40;17.30;99.90
7936;DHT22;4013;49.744;8.118;2023-08-06T07:59:07;17.50;99.90
7936;DHT22;4013;49.744;8.118;2023-08-06T08:01:34;17.50;99.90
7936;DHT22;4013;49.744;8.118;2023-08-06T08:04:01;17.50;99.90
7936;DHT22;4013;49.744;8.118;2023-08-06T08:06:30;17.40;99.90
7936;DHT22;4013;49.744;8.118;2023-08-06T08:08:57;17.40;99.90
7936;DHT22;4013;49.744;8.118;2023-08-06T08:11:25;17.40;99.90
7936;DHT22;4013;49.744;8.118;2023-08-06T08:13:53;17.50;99.90
7936;DHT22;4013;49.744;8.118;2023-08-06T08:16:20;17.50;99.90
7936;DHT22;4013;49.744;8.118;2023-08-06T08:18:47;17.40;99.90
7936;DHT22;4013;49.744;8.118;2023-08-06T08:21:14;17.40;99.90
7936;DHT22;4013;49.744;8.118;2023-08-06T08:23:41;17.40;99.90
7936;DHT22;4013;49.744;8.118;2023-08-06T08:26:09;17.60;99.90
7936;DHT22;4013;49.744;8.118;2023-08-06T08:28:36;17.70;99.90
7936;DHT22;4013;49.744;8.118;2023-08-06T08:31:08;17.70;99.90
7936;DHT22;4013;49.744;8.118;2023-08-06T08:33:35;17.80;99.90
7936;DHT22;4013;49.744;8.118;2023-08-06T08:36:02;17.80;99.90
7936;DHT22;4013;49.744;8.118;2023-08-06T08:38:29;17.80;99.90
7936;DHT22;4013;49.744;8.118;2023-08-06T08:40:56;17.90;99.90
7936;DHT22;4013;49.744;8.118;2023-08-06T08:43:23;17.90;99.90
7936;DHT22;4013;49.744;8.118;2023-08-06T08:45:51;18.00;99.90
7936;DHT22;4013;49.744;8.118;2023-08-06T08:48:22;18.10;99.90
7936;DHT22;4013;49.744;8.118;2023-08-06T08:50:50;18.00;99.90
7936;DHT22;4013;49.744;8.118;2023-08-06T08:53:17;17.90;99.90
7936;DHT22;4013;49.744;8.118;2023-08-06T08:55:47;17.90;99.90
7936;DHT22;4013;49.744;8.118;2023-08-06T08:58:14;17.80;99.90
7936;DHT22;4013;49.744;8.118;2023-08-06T09:00:42;17.70;99.90
7936;DHT22;4013;49.744;8.118;2023-08-06T09:03:09;17.70;99.90
7936;DHT22;4013;49.744;8.118;2023-08-06T09:05:43;17.60;99.90
7936;DHT22;4013;49.744;8.118;2023-08-06T09:08:11;17.70;99.90
7936;DHT22;4013;49.744;8.118;2023-08-06T09:10:41;17.80;99.90
7936;DHT22;4013;49.744;8.118;2023-08-06T09:13:09;17.80;99.90
7936;DHT22;4013;49.744;8.118;2023-08-06T09:15:38;17.80;99.90
7936;DHT22;4013;49.744;8.118;2023-08-06T09:18:09;17.80;99.90
7936;DHT22;4013;49.744;8.118;2023-08-06T09:20:39;17.80;99.90
7936;DHT22;4013;49.744;8.118;2023-08-06T09:23:09;17.80;99.90
7936;DHT22;4013;49.744;8.118;2023-08-06T09:25:38;17.70;99.90
7936;DHT22;4013;49.744;8.118;2023-08-06T09:28:06;17.60;99.90
7936;DHT22;4013;49.744;8.118;2023-08-06T09:30:34;17.50;99.90
7936;DHT22;4013;49.744;8.118;2023-08-06T09:33:01;17.40;99.90
7936;DHT22;4013;49.744;8.118;2023-08-06T09:35:29;17.30;99.90
7936;DHT22;4013;49.744;8.118;2023-08-06T09:38:05;17.20;99.90
7936;DHT22;4013;49.744;8.118;2023-08-06T09:40:33;17.30;99.90
7936;DHT22;4013;49.744;8.118;2023-08-06T09:43:00;17.30;99.90
7936;DHT22;4013;49.744;8.118;2023-08-06T09:45:30;17.50;99.90
7936;DHT22;4013;49.744;8.118;2023-08-06T09:47:57;17.40;99.90
7936;DHT22;4013;49.744;8.118;2023-08-06T09:50:29;17.50;99.90
7936;DHT22;4013;49.744;8.118;2023-08-06T09:52:57;17.40;99.90
7936;DHT22;4013;49.744;8.118;2023-08-06T09:55:25;17.40;99.90
7936;DHT22;4013;49.744;8.118;2023-08-06T09:57:53;17.20;99.90
7936;DHT22;4013;49.744;8.118;2023-08-06T10:00:20;17.20;99.90
7936;DHT22;4013;49.744;8.118;2023-08-06T10:02:47;17.30;99.90
7936;DHT22;4013;49.744;8.118;2023-08-06T10:05:18;17.30;99.90
7936;DHT22;4013;49.744;8.118;2023-08-06T10:07:45;17.20;99.90
7936;DHT22;4013;49.744;8.118;2023-08-06T10:10:14;17.10;99.90
7936;DHT22;4013;49.744;8.118;2023-08-06T10:12:44;17.10;99.90
7936;DHT22;4013;49.744;8.118;2023-08-06T10:15:16;17.00;99.90
7936;DHT22;4013;49.744;8.118;2023-08-06T10:17:44;16.90;99.90
7936;DHT22;4013;49.744;8.118;2023-08-06T10:20:12;17.00;99.90
7936;DHT22;4013;49.744;8.118;2023-08-06T10:22:42;17.10;99.90
7936;DHT22;4013;49.744;8.118;2023-08-06T10:25:10;17.30;99.90
7936;DHT22;4013;49.744;8.118;2023-08-06T10:27:53;17.30;99.90
7936;DHT22;4013;49.744;8.118;2023-08-06T10:30:22;17.40;99.90
7936;DHT22;4013;49.744;8.118;2023-08-06T10:32:49;17.50;99.90
7936;DHT22;4013;49.744;8.118;2023-08-06T10:35:31;17.40;99.90
7936;DHT22;4013;49.744;8.118;2023-08-06T10:38:05;17.30;99.90
7936;DHT22;4013;49.744;8.118;2023-08-06T10:40:34;17.20;99.90
7936;DHT22;4013;49.744;8.118;2023-08-06T10:43:03;17.20;99.90
7936;DHT22;4013;49.744;8.118;2023-08-06T10:45:34;17.40;99.90
7936;DHT22;4013;49.744;8.118;2023-08-06T10:48:01;17.30;99.90
7936;DHT22;4013;49.744;8.118;2023-08-06T10:50:29;17.30;99.90
7936;DHT22;4013;49.744;8.118;2023-08-06T10:53:00;17.20;99.90
7936;DHT22;4013;49.744;8.118;2023-08-06T10:55:30;17.20;99.90
7936;DHT22;4013;49.744;8.118;2023-08-06T10:57:58;17.20;99.90
7936;DHT22;4013;49.744;8.118;2023-08-06T11:00:26;17.20;99.90
7936;DHT22;4013;49.744;8.118;2023-08-06T11:02:53;17.20;99.90
7936;DHT22;4013;49.744;8.118;2023-08-06T11:05:21;17.30;99.90
7936;DHT22;4013;49.744;8.118;2023-08-06T11:07:48;17.40;99.90
7936;DHT22;4013;49.744;8.118;2023-08-06T11:10:17;17.40;99.90
7936;DHT22;4013;49.744;8.118;2023-08-06T11:12:44;17.40;99.90
7936;DHT22;4013;49.744;8.118;2023-08-06T11:15:11;17.40;99.90
7936;DHT22;4013;49.744;8.118;2023-08-06T11:17:40;17.50;99.90
7936;DHT22;4013;49.744;8.118;2023-08-06T11:20:09;17.40;99.90
7936;DHT22;4013;49.744;8.118;2023-08-06T11:22:37;17.30;99.90
7936;DHT22;4013;49.744;8.118;2023-08-06T11:25:05;17.20;99.90
7936;DHT22;4013;49.744;8.118;2023-08-06T11:27:32;17.20;99.90
7936;DHT22;4013;49.744;8.118;2023-08-06T11:29:59;17.20;99.90
7936;DHT22;4013;49.744;8.118;2023-08-06T11:32:26;17.20;99.90
7936;DHT22;4013;49.744;8.118;2023-08-06T11:34:56;17.20;99.90
7936;DHT22;4013;49.744;8.118;2023-08-06T11:37:23;17.10;99.90
7936;DHT22;4013;49.744;8.118;2023-08-06T11:39:51;17.00;99.90
7936;DHT22;4013;49.744;8.118;2023-08-06T11:42:19;17.00;99.90
7936;DHT22;4013;49.744;8.118;2023-08-06T11:44:46;17.10;99.90
7936;DHT22;4013;49.744;8.118;2023-08-06T11:47:15;17.00;99.90
7936;DHT22;4013;49.744;8.118;2023-08-06T11:49:44;17.10;99.90
7936;DHT22;4013;49.744;8.118;2023-08-06T11:52:15;17.00;99.90
7936;DHT22;4013;49.744;8.118;2023-08-06T11:54:45;17.10;99.90
7936;DHT22;4013;49.744;8.118;2023-08-06T11:57:12;17.00;99.90
7936;DHT22;4013;49.744;8.118;2023-08-06T11:59:39;17.00;99.90
7936;DHT22;4013;49.744;8.118;2023-08-06T12:02:09;16.90;99.90
7936;DHT22;4013;49.744;8.118;2023-08-06T12:05:02;16.90;99.90
7936;DHT22;4013;49.744;8.118;2023-08-06T12:07:32;17.00;99.90
7936;DHT22;4013;49.744;8.118;2023-08-06T12:10:00;17.00;99.90
7936;DHT22;4013;49.744;8.118;2023-08-06T12:12:27;17.10;99.90
7936;DHT22;4013;49.744;8.118;2023-08-06T12:14:54;17.10;99.90
7936;DHT22;4013;49.744;8.118;2023-08-06T12:17:22;17.20;99.90
7936;DHT22;4013;49.744;8.118;2023-08-06T12:19:49;17.20;99.90
7936;DHT22;4013;49.744;8.118;2023-08-06T12:22:16;17.20;99.90
7936;DHT22;4013;49.744;8.118;2023-08-06T12:24:46;17.30;99.90
7936;DHT22;4013;49.744;8.118;2023-08-06T12:27:14;17.30;99.90
7936;DHT22;4013;49.744;8.118;2023-08-06T12:29:42;17.40;99.90
7936;DHT22;4013;49.744;8.118;2023-08-06T12:32:09;17.40;99.90
7936;DHT22;4013;49.744;8.118;2023-08-06T12:34:38;17.30;99.90
7936;DHT22;4013;49.744;8.118;2023-08-06T12:37:05;17.30;99.90
7936;DHT22;4013;49.744;8.118;2023-08-06T12:39:33;17.30;99.90
7936;DHT22;4013;49.744;8.118;2023-08-06T12:42:02;17.10;99.90
7936;DHT22;4013;49.744;8.118;2023-08-06T12:44:29;16.90;99.90
7936;DHT22;4013;49.744;8.118;2023-08-06T12:46:56;16.80;99.90
7936;DHT22;4013;49.744;8.118;2023-08-06T12:49:25;16.70;99.90
7936;DHT22;4013;49.744;8.118;2023-08-06T12:51:52;16.80;99.90
7936;DHT22;4013;49.744;8.118;2023-08-06T12:54:21;16.70;99.90
7936;DHT22;4013;49.744;8.118;2023-08-06T12:56:49;16.70;99.90
7936;DHT22;4013;49.744;8.118;2023-08-06T12:59:18;16.80;99.90
7936;DHT22;4013;49.744;8.118;2023-08-06T13:01:45;16.80;99.90
7936;DHT22;4013;49.744;8.118;2023-08-06T13:04:14;16.70;99.90
7936;DHT22;4013;49.744;8.118;2023-08-06T13:06:41;16.60;99.90
7936;DHT22;4013;49.744;8.118;2023-08-06T13:09:08;16.70;99.90
7936;DHT22;4013;49.744;8.118;2023-08-06T13:11:35;16.70;99.90
7936;DHT22;4013;49.744;8.118;2023-08-06T13:14:07;16.90;99.90
7936;DHT22;4013;49.744;8.118;2023-08-06T13:16:37;16.80;99.90
7936;DHT22;4013;49.744;8.118;2023-08-06T13:19:05;16.90;99.90
7936;DHT22;4013;49.744;8.118;2023-08-06T13:21:33;16.90;99.90
7936;DHT22;4013;49.744;8.118;2023-08-06T13:24:01;16.80;99.90
7936;DHT22;4013;49.744;8.118;2023-08-06T13:26:28;16.80;99.90
7936;DHT22;4013;49.744;8.118;2023-08-06T13:28:57;16.50;99.90
7936;DHT22;4013;49.744;8.118;2023-08-06T13:31:24;16.60;99.90
7936;DHT22;4013;49.744;8.118;2023-08-06T13:33:53;16.60;99.90
7936;DHT22;4013;49.744;8.118;2023-08-06T13:36:21;16.60;99.90
7936;DHT22;4013;49.744;8.118;2023-08-06T13:38:48;16.60;99.90
7936;DHT22;4013;49.744;8.118;2023-08-06T13:41:15;16.70;99.90
7936;DHT22;4013;49.744;8.118;2023-08-06T13:43:42;16.80;99.90
7936;DHT22;4013;49.744;8.118;2023-08-06T13:46:09;16.80;99.90
7936;DHT22;4013;49.744;8.118;2023-08-06T13:48:40;16.80;99.90
7936;DHT22;4013;49.744;8.118;2023-08-06T13:51:09;16.80;99.90
7936;DHT22;4013;49.744;8.118;2023-08-06T13:53:37;16.90;99.90
7936;DHT22;4013;49.744;8.118;2023-08-06T13:56:04;16.90;99.90
7936;DHT22;4013;49.744;8.118;2023-08-06T13:58:31;16.90;99.90
7936;DHT22;4013;49.744;8.118;2023-08-06T14:00:58;16.90;99.90
7936;DHT22;4013;49.744;8.118;2023-08-06T14:03:25;16.80;99.90
7936;DHT22;4013;49.744;8.118;2023-08-06T14:05:52;16.80;99.90
7936;DHT22;4013;49.744;8.118;2023-08-06T14:08:22;16.60;99.90
7936;DHT22;4013;49.744;8.118;2023-08-06T14:10:50;16.60;99.90
7936;DHT22;4013;49.744;8.118;2023-08-06T14:13:17;16.60;99.90
7936;DHT22;4013;49.744;8.118;2023-08-06T14:15:44;16.60;99.90
7936;DHT22;4013;49.744;8.118;2023-08-06T14:18:13;16.50;99.90
7936;DHT22;4013;49.744;8.118;2023-08-06T14:20:40;16.40;99.90
7936;DHT22;4013;49.744;8.118;2023-08-06T14:23:07;16.30;99.90
7936;DHT22;4013;49.744;8.118;2023-08-06T14:25:36;16.20;99.90
7936;DHT22;4013;49.744;8.118;2023-08-06T14:28:04;16.10;99.90
7936;DHT22;4013;49.744;8.118;2023-08-06T14:30:32;16.10;99.90
7936;DHT22;4013;49.744;8.118;2023-08-06T14:32:59;16.00;99.90
7936;DHT22;4013;49.744;8.118;2023-08-06T14:35:26;16.00;99.90
7936;DHT22;4013;49.744;8.118;2023-08-06T14:37:53;16.00;99.90
7936;DHT22;4013;49.744;8.118;2023-08-06T14:40:20;15.90;99.90
7936;DHT22;4013;49.744;8.118;2023-08-06T14:42:48;15.70;99.90
7936;DHT22;4013;49.744;8.118;2023-08-06T14:45:16;15.70;99.90
7936;DHT22;4013;49.744;8.118;2023-08-06T14:47:43;15.70;99.90
7936;DHT22;4013;49.744;8.118;2023-08-06T14:50:10;15.70;99.90
7936;DHT22;4013;49.744;8.118;2023-08-06T14:52:40;15.80;99.90
7936;DHT22;4013;49.744;8.118;2023-08-06T14:55:07;15.80;99.90
7936;DHT22;4013;49.744;8.118;2023-08-06T14:57:34;15.90;99.90
7936;DHT22;4013;49.744;8.118;2023-08-06T15:00:04;15.90;99.90
7936;DHT22;4013;49.744;8.118;2023-08-06T15:02:32;15.90;99.90
7936;DHT22;4013;49.744;8.118;2023-08-06T15:04:59;15.90;99.90
7936;DHT22;4013;49.744;8.118;2023-08-06T15:07:26;16.00;99.90
7936;DHT22;4013;49.744;8.118;2023-08-06T15:09:54;16.00;99.90
7936;DHT22;4013;49.744;8.118;2023-08-06T15:12:21;16.20;99.90
7936;DHT22;4013;49.744;8.118;2023-08-06T15:14:48;16.20;99.90
7936;DHT22;4013;49.744;8.118;2023-08-06T15:17:17;16.30;99.90
7936;DHT22;4013;49.744;8.118;2023-08-06T15:19:44;16.40;99.90
7936;DHT22;4013;49.744;8.118;2023-08-06T15:22:11;16.40;99.90
7936;DHT22;4013;49.744;8.118;2023-08-06T15:24:38;16.40;99.90
7936;DHT22;4013;49.744;8.118;2023-08-06T15:27:07;16.40;99.90
7936;DHT22;4013;49.744;8.118;2023-08-06T15:29:34;16.40;99.90
7936;DHT22;4013;49.744;8.118;2023-08-06T15:32:03;16.40;99.90
7936;DHT22;4013;49.744;8.118;2023-08-06T15:34:31;16.50;99.90
7936;DHT22;4013;49.744;8.118;2023-08-06T15:36:58;16.40;99.90
7936;DHT22;4013;49.744;8.118;2023-08-06T15:39:25;16.40;99.90
7936;DHT22;4013;49.744;8.118;2023-08-06T15:41:52;16.40;99.90
7936;DHT22;4013;49.744;8.118;2023-08-06T15:44:19;16.50;99.90
7936;DHT22;4013;49.744;8.118;2023-08-06T15:46:46;16.50;99.90
7936;DHT22;4013;49.744;8.118;2023-08-06T15:49:13;16.50;99.90
7936;DHT22;4013;49.744;8.118;2023-08-06T15:51:42;16.50;99.90
7936;DHT22;4013;49.744;8.118;2023-08-06T15:54:09;16.50;99.90
7936;DHT22;4013;49.744;8.118;2023-08-06T15:56:36;16.50;99.90
7936;DHT22;4013;49.744;8.118;2023-08-06T15:59:21;16.50;99.90
7936;DHT22;4013;49.744;8.118;2023-08-06T16:01:48;16.50;99.90
7936;DHT22;4013;49.744;8.118;2023-08-06T16:04:15;16.60;99.90
7936;DHT22;4013;49.744;8.118;2023-08-06T16:06:43;16.60;99.90
7936;DHT22;4013;49.744;8.118;2023-08-06T16:09:11;16.70;99.90
7936;DHT22;4013;49.744;8.118;2023-08-06T16:11:38;16.70;99.90
7936;DHT22;4013;49.744;8.118;2023-08-06T16:14:05;16.70;99.90
7936;DHT22;4013;49.744;8.118;2023-08-06T16:16:32;16.70;99.90
7936;DHT22;4013;49.744;8.118;2023-08-06T16:19:00;16.70;99.90
7936;DHT22;4013;49.744;8.118;2023-08-06T16:21:27;16.60;99.90
7936;DHT22;4013;49.744;8.118;2023-08-06T16:23:56;16.50;99.90
7936;DHT22;4013;49.744;8.118;2023-08-06T16:26:22;16.50;99.90
7936;DHT22;4013;49.744;8.118;2023-08-06T16:28:49;16.50;99.90
7936;DHT22;4013;49.744;8.118;2023-08-06T16:31:20;16.50;99.90
7936;DHT22;4013;49.744;8.118;2023-08-06T16:33:47;16.50;99.90
7936;DHT22;4013;49.744;8.118;2023-08-06T16:36:14;16.40;99.90
7936;DHT22;4013;49.744;8.118;2023-08-06T16:38:41;16.50;99.90
7936;DHT22;4013;49.744;8.118;2023-08-06T16:41:10;16.40;99.90
7936;DHT22;4013;49.744;8.118;2023-08-06T16:43:37;16.50;99.90
7936;DHT22;4013;49.744;8.118;2023-08-06T16:46:04;16.40;99.90
7936;DHT22;4013;49.744;8.118;2023-08-06T16:48:37;16.40;99.90
7936;DHT22;4013;49.744;8.118;2023-08-06T16:51:04;16.30;99.90
7936;DHT22;4013;49.744;8.118;2023-08-06T16:53:33;16.30;99.90
7936;DHT22;4013;49.744;8.118;2023-08-06T16:56:01;16.40;99.90
7936;DHT22;4013;49.744;8.118;2023-08-06T16:58:30;16.40;99.90
7936;DHT22;4013;49.744;8.118;2023-08-06T17:00:57;16.40;99.90
7936;DHT22;4013;49.744;8.118;2023-08-06T17:03:29;16.40;99.90
7936;DHT22;4013;49.744;8.118;2023-08-06T17:05:56;16.50;99.90
7936;DHT22;4013;49.744;8.118;2023-08-06T17:08:24;16.50;99.90
7936;DHT22;4013;49.744;8.118;2023-08-06T17:10:53;16.50;99.90
7936;DHT22;4013;49.744;8.118;2023-08-06T17:13:20;16.50;99.90
7936;DHT22;4013;49.744;8.118;2023-08-06T17:15:48;16.40;99.90
7936;DHT22;4013;49.744;8.118;2023-08-06T17:18:15;16.40;99.90
7936;DHT22;4013;49.744;8.118;2023-08-06T17:20:42;16.50;99.90
7936;DHT22;4013;49.744;8.118;2023-08-06T17:23:09;16.50;99.90
7936;DHT22;4013;49.744;8.118;2023-08-06T17:25:36;16.40;99.90
7936;DHT22;4013;49.744;8.118;2023-08-06T17:28:06;16.40;99.90
7936;DHT22;4013;49.744;8.118;2023-08-06T17:30:33;16.30;99.90
7936;DHT22;4013;49.744;8.118;2023-08-06T17:33:01;16.20;99.90
7936;DHT22;4013;49.744;8.118;2023-08-06T17:35:29;16.20;99.90
7936;DHT22;4013;49.744;8.118;2023-08-06T17:37:57;16.10;99.90
7936;DHT22;4013;49.744;8.118;2023-08-06T17:40:25;16.10;99.90
7936;DHT22;4013;49.744;8.118;2023-08-06T17:42:52;16.10;99.90
7936;DHT22;4013;49.744;8.118;2023-08-06T17:45:20;16.10;99.90
7936;DHT22;4013;49.744;8.118;2023-08-06T17:47:48;16.10;99.90
7936;DHT22;4013;49.744;8.118;2023-08-06T17:50:17;16.00;99.90
7936;DHT22;4013;49.744;8.118;2023-08-06T17:52:44;16.00;99.90
7936;DHT22;4013;49.744;8.118;2023-08-06T17:55:11;16.00;99.90
7936;DHT22;4013;49.744;8.118;2023-08-06T17:57:38;16.00;99.90
7936;DHT22;4013;49.744;8.118;2023-08-06T18:00:06;16.10;99.90
7936;DHT22;4013;49.744;8.118;2023-08-06T18:02:33;16.00;99.90
7936;DHT22;4013;49.744;8.118;2023-08-06T18:05:00;16.00;99.90
7936;DHT22;4013;49.744;8.118;2023-08-06T18:07:29;16.00;99.90
7936;DHT22;4013;49.744;8.118;2023-08-06T18:09:56;16.00;99.90
7936;DHT22;4013;49.744;8.118;2023-08-06T18:12:23;15.90;99.90
7936;DHT22;4013;49.744;8.118;2023-08-06T18:14:50;15.90;99.90
7936;DHT22;4013;49.744;8.118;2023-08-06T18:17:17;15.80;99.90
7936;DHT22;4013;49.744;8.118;2023-08-06T18:19:44;15.80;99.90
7936;DHT22;4013;49.744;8.118;2023-08-06T18:22:11;15.80;99.90
7936;DHT22;4013;49.744;8.118;2023-08-06T18:24:39;15.80;99.90
7936;DHT22;4013;49.744;8.118;2023-08-06T18:27:06;15.70;99.90
7936;DHT22;4013;49.744;8.118;2023-08-06T18:29:33;15.70;99.90
7936;DHT22;4013;49.744;8.118;2023-08-06T18:32:01;15.60;99.90
7936;DHT22;4013;49.744;8.118;2023-08-06T18:34:28;15.50;99.90
7936;DHT22;4013;49.744;8.118;2023-08-06T18:36:55;15.40;99.90
7936;DHT22;4013;49.744;8.118;2023-08-06T18:39:22;15.40;99.90
7936;DHT22;4013;49.744;8.118;2023-08-06T18:41:50;15.40;99.90
7936;DHT22;4013;49.744;8.118;2023-08-06T18:44:18;15.50;99.90
7936;DHT22;4013;49.744;8.118;2023-08-06T18:46:45;15.50;99.90
7936;DHT22;4013;49.744;8.118;2023-08-06T18:49:12;15.50;99.90
7936;DHT22;4013;49.744;8.118;2023-08-06T18:51:40;15.50;99.90
7936;DHT22;4013;49.744;8.118;2023-08-06T18:54:07;15.40;99.90
7936;DHT22;4013;49.744;8.118;2023-08-06T18:56:34;15.40;99.90
7936;DHT22;4013;49.744;8.118;2023-08-06T18:59:02;15.40;99.90
7936;DHT22;4013;49.744;8.118;2023-08-06T19:01:29;15.40;99.90
7936;DHT22;4013;49.744;8.118;2023-08-06T19:03:56;15.40;99.90
7936;DHT22;4013;49.744;8.118;2023-08-06T19:06:23;15.40;99.90
7936;DHT22;4013;49.744;8.118;2023-08-06T19:08:53;15.30;99.90
7936;DHT22;4013;49.744;8.118;2023-08-06T19:11:20;15.30;99.90
7936;DHT22;4013;49.744;8.118;2023-08-06T19:13:48;15.30;99.90
7936;DHT22;4013;49.744;8.118;2023-08-06T19:16:16;15.30;99.90
7936;DHT22;4013;49.744;8.118;2023-08-06T19:18:43;15.30;99.90
7936;DHT22;4013;49.744;8.118;2023-08-06T19:21:10;15.20;99.90
7936;DHT22;4013;49.744;8.118;2023-08-06T19:23:37;15.20;99.90
7936;DHT22;4013;49.744;8.118;2023-08-06T19:26:04;15.10;99.90
7936;DHT22;4013;49.744;8.118;2023-08-06T19:28:31;15.00;99.90
7936;DHT22;4013;49.744;8.118;2023-08-06T19:30:59;14.80;99.90
7936;DHT22;4013;49.744;8.118;2023-08-06T19:33:28;14.70;99.90
7936;DHT22;4013;49.744;8.118;2023-08-06T19:35:55;14.60;99.90
7936;DHT22;4013;49.744;8.118;2023-08-06T19:38:23;14.50;99.90
7936;DHT22;4013;49.744;8.118;2023-08-06T19:40:50;14.40;99.90
7936;DHT22;4013;49.744;8.118;2023-08-06T19:43:18;14.40;99.90
7936;DHT22;4013;49.744;8.118;2023-08-06T19:45:49;14.30;99.90
7936;DHT22;4013;49.744;8.118;2023-08-06T19:48:16;14.30;99.90
7936;DHT22;4013;49.744;8.118;2023-08-06T19:50:50;14.20;99.90
7936;DHT22;4013;49.744;8.118;2023-08-06T19:53:18;14.20;99.90
7936;DHT22;4013;49.744;8.118;2023-08-06T19:55:45;14.10;99.90
7936;DHT22;4013;49.744;8.118;2023-08-06T19:58:15;14.10;99.90
7936;DHT22;4013;49.744;8.118;2023-08-06T20:00:42;14.00;99.90
7936;DHT22;4013;49.744;8.118;2023-08-06T20:03:09;14.00;99.90
7936;DHT22;4013;49.744;8.118;2023-08-06T20:05:36;14.00;99.90
7936;DHT22;4013;49.744;8.118;2023-08-06T20:08:04;13.90;99.90
7936;DHT22;4013;49.744;8.118;2023-08-06T20:10:31;13.90;99.90
7936;DHT22;4013;49.744;8.118;2023-08-06T20:12:58;13.90;99.90
7936;DHT22;4013;49.744;8.118;2023-08-06T20:15:26;13.80;99.90
7936;DHT22;4013;49.744;8.118;2023-08-06T20:17:53;13.80;99.90
7936;DHT22;4013;49.744;8.118;2023-08-06T20:20:20;13.80;99.90
7936;DHT22;4013;49.744;8.118;2023-08-06T20:22:47;13.80;99.90
7936;DHT22;4013;49.744;8.118;2023-08-06T20:25:16;13.70;99.90